Time;durP1;ratioP1;P1;durP2;ratioP2;P2;SDS_P1;SDS_P2;PMS_P1;PMS_P2;Temp;Humidity;BMP_temperature;BMP_pressure;BME280_temperature;BME280_humidity;BME280_pressure;Samples;Min_cycle;Max_cycle;Signal;HPM_P1;HPM_P2
2022/08/13 00:01:51;;;;;;;1.80;1.70;;;;;;;17.92;60.67;96418.56;5054940;28;20521;-53
2022/08/13 00:04:18;;;;;;;1.73;1.63;;;;;;;17.96;60.27;96417.16;5055271;28;20250;-51
2022/08/13 00:07:07;;;;;;;1.17;1.13;;;;;;;17.94;60.77;96421.84;5054928;28;20207;-52
2022/08/13 00:09:35;;;;;;;2.90;1.80;;;;;;;17.79;62.20;96417.41;5057689;28;20298;-51
2022/08/13 00:14:47;;;;;;;2.77;1.80;;;;;;;17.56;63.44;96416.81;5049468;28;20258;-51
2022/08/13 00:17:17;;;;;;;1.80;1.70;;;;;;;17.57;63.54;96421.13;5057887;28;20647;-51
2022/08/13 00:19:47;;;;;;;2.08;1.50;;;;;;;17.52;64.22;96426.22;5057035;28;20237;-52
2022/08/13 00:22:21;;;;;;;2.05;1.42;;;;;;;17.51;63.18;96419.19;5064278;28;20256;-52
2022/08/13 00:24:47;;;;;;;2.55;1.60;;;;;;;17.43;64.48;96414.81;5074004;28;20191;-50
2022/08/13 00:27:14;;;;;;;1.30;1.30;;;;;;;17.37;64.85;96415.56;5064630;28;20286;-50
2022/08/13 00:29:41;;;;;;;2.17;1.98;;;;;;;17.31;64.59;96412.84;5054973;28;20289;-51
2022/08/13 00:32:08;;;;;;;2.30;1.60;;;;;;;17.33;65.22;96410.78;5055160;28;20521;-49
2022/08/13 00:34:36;;;;;;;3.08;1.95;;;;;;;17.26;64.83;96415.25;5054447;28;20298;-50
2022/08/13 00:37:05;;;;;;;2.33;1.83;;;;;;;17.25;65.29;96416.28;5054456;28;20210;-50
2022/08/13 00:39:31;;;;;;;2.20;1.83;;;;;;;17.29;65.25;96409.50;5054632;28;20235;-51
2022/08/13 00:41:59;;;;;;;2.50;1.77;;;;;;;17.23;65.71;96404.94;5055246;28;20258;-50
2022/08/13 00:44:28;;;;;;;1.95;1.85;;;;;;;17.26;64.56;96412.56;5061535;28;20227;-51
2022/08/13 00:48:41;;;;;;;2.80;1.50;;;;;;;17.18;65.65;96407.38;5068697;28;20235;-50
2022/08/13 00:49:41;;;;;;;4.05;1.88;;;;;;;17.20;64.27;96413.34;5071339;28;20266;-52
2022/08/13 00:52:10;;;;;;;1.70;1.60;;;;;;;17.27;63.92;96412.38;5072725;28;20203;-52
2022/08/13 00:54:41;;;;;;;2.63;1.50;;;;;;;17.08;64.84;96415.66;5071702;28;20211;-51
2022/08/13 00:57:10;;;;;;;3.07;1.83;;;;;;;17.08;65.67;96414.84;5059320;28;20199;-51
2022/08/13 00:59:37;;;;;;;1.43;1.43;;;;;;;17.10;65.76;96410.97;5054530;28;20635;-50
2022/08/13 01:02:04;;;;;;;2.10;1.48;;;;;;;16.99;66.34;96416.81;5054001;28;20231;-51
2022/08/13 01:04:32;;;;;;;2.60;1.63;;;;;;;16.97;67.38;96415.34;5054659;28;20219;-50
2022/08/13 01:07:01;;;;;;;3.30;1.73;;;;;;;16.87;67.70;96412.97;5054270;28;20309;-51
2022/08/13 01:09:30;;;;;;;1.60;1.50;;;;;;;16.82;68.55;96416.22;5052929;28;20217;-51
2022/08/13 01:12:00;;;;;;;1.97;1.50;;;;;;;16.72;68.42;96421.00;5054048;28;20207;-50
2022/08/13 01:14:32;;;;;;;2.30;1.70;;;;;;;16.67;69.01;96420.75;5053781;28;20195;-50
2022/08/13 01:17:04;;;;;;;1.73;1.63;;;;;;;16.65;68.71;96419.28;5053552;28;20195;-50
2022/08/13 01:19:33;;;;;;;2.87;2.27;;;;;;;16.60;68.81;96419.81;5041547;28;20207;-49
2022/08/13 01:22:04;;;;;;;1.73;1.63;;;;;;;16.59;69.51;96422.66;5053698;28;20231;-51
2022/08/13 01:24:31;;;;;;;3.33;2.00;;;;;;;16.55;70.13;96419.50;5054016;28;20289;-50
2022/08/13 01:27:01;;;;;;;2.50;1.97;;;;;;;16.53;69.41;96416.22;5054215;28;20207;-51
2022/08/13 01:29:28;;;;;;;3.43;2.33;;;;;;;16.54;69.61;96420.53;5053281;28;20245;-51
2022/08/13 01:31:55;;;;;;;1.77;1.67;;;;;;;16.44;70.81;96415.47;5041570;28;20211;-52
2022/08/13 01:34:23;;;;;;;1.90;1.80;;;;;;;16.41;71.16;96410.50;5053856;28;20240;-50
2022/08/13 01:36:50;;;;;;;5.03;2.00;;;;;;;16.38;71.14;96415.38;5045758;28;20208;-51
2022/08/13 01:39:19;;;;;;;2.10;1.90;;;;;;;16.42;70.11;96411.34;5049394;28;20748;-51
2022/08/13 01:41:46;;;;;;;1.70;1.60;;;;;;;16.49;70.27;96406.91;5053692;28;20302;-50
2022/08/13 01:44:14;;;;;;;2.43;2.17;;;;;;;16.37;70.12;96413.72;5053941;28;20213;-50
2022/08/13 01:52:13;;;;;;;1.87;1.77;;;;;;;16.21;71.58;96408.56;5079841;28;20190;-51
2022/08/13 01:54:42;;;;;;;1.80;1.70;;;;;;;16.24;70.96;96409.03;5075473;28;20276;-51
2022/08/13 01:57:11;;;;;;;2.27;1.80;;;;;;;16.29;69.81;96416.50;5059572;28;20241;-51
2022/08/13 01:59:41;;;;;;;2.17;1.93;;;;;;;16.29;69.30;96420.00;5059322;28;20269;-51
2022/08/13 02:02:11;;;;;;;2.10;2.00;;;;;;;16.19;70.97;96410.59;5058305;28;20235;-50
2022/08/13 02:04:39;;;;;;;4.10;1.80;;;;;;;16.18;71.07;96414.28;5057866;28;20278;-50
2022/08/13 02:07:07;;;;;;;2.73;1.83;;;;;;;16.22;71.92;96416.41;5058139;28;20520;-51
2022/08/13 02:09:34;;;;;;;2.00;1.90;;;;;;;16.29;69.16;96413.81;5058242;28;20210;-52
2022/08/13 02:12:03;;;;;;;3.30;2.23;;;;;;;16.22;69.63;96415.56;5057095;28;20273;-51
2022/08/13 02:14:29;;;;;;;2.37;2.27;;;;;;;16.16;71.25;96422.47;5057399;28;20199;-50
2022/08/13 02:16:56;;;;;;;1.93;1.83;;;;;;;16.10;71.78;96419.69;5057170;28;20277;-50
2022/08/13 02:19:23;;;;;;;1.87;1.77;;;;;;;16.11;71.88;96418.69;5057361;28;20290;-51
2022/08/13 02:21:50;;;;;;;2.63;1.80;;;;;;;16.14;70.85;96429.00;5057455;28;20285;-51
2022/08/13 02:24:16;;;;;;;1.67;1.60;;;;;;;16.07;71.83;96423.56;5057253;28;20239;-50
2022/08/13 02:26:44;;;;;;;1.97;1.87;;;;;;;16.09;72.43;96416.19;5057207;28;20219;-52
2022/08/13 02:29:13;;;;;;;3.17;2.13;;;;;;;16.03;71.63;96427.59;5057324;28;20298;-51
2022/08/13 02:31:42;;;;;;;3.43;2.13;;;;;;;16.12;70.94;96431.03;5055930;28;20681;-50
2022/08/13 02:34:09;;;;;;;1.70;1.57;;;;;;;16.10;70.71;96422.34;5057017;28;20198;-51
2022/08/13 02:36:37;;;;;;;2.27;1.97;;;;;;;15.98;71.23;96423.84;5057256;28;20218;-51
2022/08/13 02:39:05;;;;;;;2.23;2.03;;;;;;;15.98;71.75;96419.31;5057275;28;20826;-50
2022/08/13 02:41:42;;;;;;;3.70;1.77;;;;;;;16.03;71.60;96408.09;5057386;28;20598;-51
2022/08/13 02:44:10;;;;;;;3.07;1.80;;;;;;;15.95;70.93;96411.66;5055361;28;20230;-49
2022/08/13 02:46:39;;;;;;;2.10;2.00;;;;;;;15.92;71.09;96410.19;5051742;28;20231;-50
2022/08/13 02:49:07;;;;;;;1.87;1.70;;;;;;;15.87;71.44;96412.56;5056430;28;20253;-50
2022/08/13 02:51:33;;;;;;;2.03;1.80;;;;;;;15.77;73.24;96412.00;5058676;28;20243;-50
2022/08/13 02:54:01;;;;;;;2.37;1.70;;;;;;;15.74;73.53;96407.03;5058946;28;20286;-50
2022/08/13 02:56:28;;;;;;;2.17;1.97;;;;;;;15.79;72.02;96412.66;5060417;28;20235;-50
2022/08/13 02:58:56;;;;;;;1.70;1.53;;;;;;;15.82;72.15;96414.97;5068154;28;20214;-51
2022/08/13 03:01:24;;;;;;;1.97;1.83;;;;;;;15.76;72.49;96421.03;5079672;28;20187;-51
2022/08/13 03:03:52;;;;;;;1.60;1.50;;;;;;;15.71;73.08;96423.41;5076385;28;20215;-50
2022/08/13 03:06:19;;;;;;;2.23;1.53;;;;;;;15.75;72.21;96410.53;5059515;28;20198;-51
2022/08/13 03:08:48;;;;;;;1.97;1.53;;;;;;;15.66;73.84;96415.09;5059514;28;20286;-52
2022/08/13 03:11:14;;;;;;;1.87;1.77;;;;;;;15.74;72.16;96415.03;5071051;28;20186;-51
2022/08/13 03:13:43;;;;;;;2.67;1.60;;;;;;;15.71;72.18;96410.06;5077707;28;20207;-50
2022/08/13 03:16:10;;;;;;;2.30;1.87;;;;;;;15.51;73.73;96416.09;5067423;28;20214;-51
2022/08/13 03:18:37;;;;;;;1.80;1.70;;;;;;;15.39;74.72;96421.81;5059730;28;20244;-51
2022/08/13 03:21:06;;;;;;;2.40;1.70;;;;;;;15.33;75.67;96421.69;5070911;28;20191;-51
2022/08/13 03:23:33;;;;;;;2.10;1.90;;;;;;;15.34;75.37;96418.81;5074799;28;20296;-51
2022/08/13 03:26:00;;;;;;;2.37;1.97;;;;;;;15.27;75.01;96422.38;5053882;28;20302;-50
2022/08/13 03:28:27;;;;;;;1.70;1.60;;;;;;;15.25;75.66;96413.75;5055597;28;20302;-51
2022/08/13 03:30:55;;;;;;;1.83;1.73;;;;;;;15.35;73.24;96415.16;5054629;28;20276;-51
2022/08/13 03:33:21;;;;;;;3.23;2.00;;;;;;;15.28;74.93;96413.38;5055400;28;20210;-51
2022/08/13 03:35:48;;;;;;;4.70;1.80;;;;;;;15.29;73.39;96409.72;5055350;28;20207;-50
2022/08/13 03:38:18;;;;;;;1.80;1.70;;;;;;;15.21;74.93;96404.44;5042295;28;20207;-50
2022/08/13 03:41:11;;;;;;;2.53;1.87;;;;;;;15.22;75.77;96414.09;5055276;28;20210;-50
2022/08/13 03:43:42;;;;;;;1.73;1.60;;;;;;;15.22;74.95;96408.78;5055190;28;20277;-52
2022/08/13 03:46:09;;;;;;;1.90;1.80;;;;;;;15.19;75.24;96417.13;5055118;28;20213;-51
2022/08/13 03:48:36;;;;;;;1.90;1.80;;;;;;;15.17;76.01;96411.97;5014433;28;20227;-50
2022/08/13 03:51:03;;;;;;;2.20;2.10;;;;;;;15.17;76.22;96424.44;5015443;28;20209;-51
2022/08/13 03:53:31;;;;;;;2.07;1.67;;;;;;;15.19;75.95;96419.78;5015273;28;20218;-51
2022/08/13 03:55:58;;;;;;;2.53;2.07;;;;;;;15.16;77.34;96428.94;5014935;28;20201;-49
2022/08/13 03:58:26;;;;;;;2.13;2.03;;;;;;;15.15;77.53;96437.13;5034780;28;20249;-52
2022/08/13 04:00:53;;;;;;;1.77;1.67;;;;;;;15.25;74.92;96433.22;5038508;28;20211;-51
2022/08/13 04:03:22;;;;;;;1.80;1.70;;;;;;;15.14;77.20;96433.63;5035566;28;20236;-52
2022/08/13 04:05:50;;;;;;;1.83;1.73;;;;;;;15.15;76.90;96437.13;5017344;28;20378;-50
2022/08/13 04:08:17;;;;;;;1.97;1.87;;;;;;;15.11;77.85;96430.47;5016835;28;20232;-50
2022/08/13 04:10:48;;;;;;;2.00;1.83;;;;;;;15.02;78.11;96436.88;5015881;28;20204;-52
2022/08/13 04:13:16;;;;;;;2.00;1.70;;;;;;;15.05;77.80;96436.53;5015826;28;20295;-51
2022/08/13 04:15:43;;;;;;;2.40;2.07;;;;;;;14.99;78.69;96426.56;5002933;28;20242;-51
2022/08/13 04:18:11;;;;;;;2.60;1.80;;;;;;;14.99;79.74;96426.56;5015288;28;20295;-50
2022/08/13 04:20:39;;;;;;;2.30;2.10;;;;;;;15.08;77.24;96425.50;5015521;28;20220;-50
2022/08/13 04:23:07;;;;;;;1.73;1.63;;;;;;;15.07;78.32;96426.50;5015017;28;20323;-51
2022/08/13 04:25:35;;;;;;;3.30;1.70;;;;;;;15.10;77.70;96423.50;5014730;28;20220;-50
2022/08/13 04:28:07;;;;;;;3.40;1.80;;;;;;;15.13;78.23;96425.78;5015008;28;20219;-51
2022/08/13 04:30:35;;;;;;;3.50;2.10;;;;;;;15.23;75.22;96429.88;5015289;28;20200;-51
2022/08/13 04:33:03;;;;;;;2.07;1.60;;;;;;;15.13;76.97;96433.78;5014754;28;20197;-52
2022/08/13 04:35:30;;;;;;;2.60;1.63;;;;;;;15.09;77.34;96427.97;5015191;28;20217;-50
2022/08/13 04:37:58;;;;;;;1.90;1.80;;;;;;;15.09;77.82;96420.00;5015403;28;20518;-52
2022/08/13 04:40:24;;;;;;;1.93;1.83;;;;;;;15.10;78.21;96420.81;5016217;28;20643;-51
2022/08/13 04:42:53;;;;;;;3.63;2.00;;;;;;;15.27;76.37;96425.03;5014472;28;20264;-50
2022/08/13 04:45:22;;;;;;;2.30;2.10;;;;;;;15.41;76.58;96425.09;5014708;28;20264;-51
2022/08/13 04:47:49;;;;;;;3.27;2.17;;;;;;;15.65;76.54;96415.31;5041084;28;20706;-51
2022/08/13 04:50:16;;;;;;;3.50;2.10;;;;;;;15.84;75.70;96418.28;5054743;28;20271;-51
2022/08/13 04:52:43;;;;;;;2.23;1.63;;;;;;;16.09;74.80;96420.69;5054576;28;20203;-53
2022/08/13 04:55:12;;;;;;;1.77;1.67;;;;;;;16.21;74.59;96416.56;5054153;28;20589;-50
2022/08/13 04:57:39;;;;;;;3.20;1.60;;;;;;;16.18;75.83;96424.94;5054517;28;20206;-53
2022/08/13 05:00:07;;;;;;;2.20;2.10;;;;;;;16.24;74.43;96429.53;5053897;28;20297;-50
2022/08/13 05:02:40;;;;;;;2.47;2.00;;;;;;;16.26;74.61;96430.22;5041052;28;20557;-51
2022/08/13 05:05:07;;;;;;;2.17;1.90;;;;;;;16.22;75.33;96426.25;5053742;28;20310;-52
2022/08/13 05:07:34;;;;;;;1.77;1.67;;;;;;;16.22;75.20;96420.91;5054420;28;20290;-51
2022/08/13 05:10:01;;;;;;;1.60;1.60;;;;;;;16.31;75.63;96417.97;5053874;28;20238;-51
2022/08/13 05:12:27;;;;;;;1.80;1.70;;;;;;;16.48;74.56;96417.75;5054074;28;20286;-51
2022/08/13 05:14:54;;;;;;;1.70;1.58;;;;;;;16.84;74.15;96414.16;5040822;28;20203;-50
2022/08/13 05:17:22;;;;;;;1.80;1.70;;;;;;;16.88;74.67;96418.13;5053976;28;20203;-52
2022/08/13 05:19:50;;;;;;;1.73;1.63;;;;;;;17.07;73.58;96411.34;5054277;28;20203;-51
2022/08/13 05:22:17;;;;;;;2.50;1.90;;;;;;;17.26;72.56;96415.25;5054864;28;20301;-51
2022/08/13 05:24:45;;;;;;;1.90;1.80;;;;;;;17.24;73.89;96427.97;5057765;28;20313;-51
2022/08/13 05:27:13;;;;;;;1.75;1.65;;;;;;;17.40;72.23;96425.88;5058330;28;20715;-50
2022/08/13 05:29:41;;;;;;;2.38;2.15;;;;;;;17.63;71.26;96428.41;5058266;28;20211;-53
2022/08/13 05:32:10;;;;;;;2.10;2.00;;;;;;;17.70;69.25;96421.25;5057348;28;20547;-50
2022/08/13 05:34:37;;;;;;;1.70;1.50;;;;;;;17.89;66.53;96431.28;5057583;28;20203;-52
2022/08/13 05:37:05;;;;;;;1.75;1.65;;;;;;;18.24;66.34;96434.03;5058022;28;20207;-51
2022/08/13 05:39:32;;;;;;;2.00;1.90;;;;;;;18.40;62.79;96436.41;5056985;28;20302;-52
2022/08/13 05:41:59;;;;;;;3.38;1.92;;;;;;;18.70;61.17;96437.84;5056950;28;20687;-52
2022/08/13 05:44:26;;;;;;;4.03;2.20;;;;;;;18.82;61.40;96449.63;5057007;28;20751;-51
2022/08/13 05:46:53;;;;;;;1.95;1.83;;;;;;;18.85;60.52;96449.25;5057043;28;20235;-51
2022/08/13 05:49:23;;;;;;;2.03;1.92;;;;;;;18.92;59.35;96454.63;5057259;28;20218;-51
2022/08/13 05:51:50;;;;;;;6.13;2.10;;;;;;;19.12;58.94;96450.19;5057748;28;20226;-52
2022/08/13 05:54:19;;;;;;;2.78;2.63;;;;;;;19.36;58.24;96438.09;5057486;28;20218;-51
2022/08/13 05:56:46;;;;;;;2.38;1.83;;;;;;;19.27;58.31;96440.13;5057340;28;20281;-53
2022/08/13 06:04:40;;;;;;;2.03;1.88;;;;;;;20.09;55.13;96430.94;5056726;28;20222;-52
2022/08/13 06:07:09;;;;;;;3.33;2.10;;;;;;;20.54;55.00;96423.91;5064669;28;20263;-51
2022/08/13 06:09:37;;;;;;;2.72;2.10;;;;;;;20.95;54.47;96432.47;5071755;28;20199;-50
2022/08/13 06:12:04;;;;;;;3.63;2.08;;;;;;;21.16;54.03;96426.00;5067164;28;20241;-50
2022/08/13 06:14:34;;;;;;;1.98;1.88;;;;;;;21.31;53.77;96418.47;5060327;28;20256;-52
2022/08/13 06:17:03;;;;;;;2.10;2.00;;;;;;;21.44;51.67;96412.19;5057162;28;20207;-52
2022/08/13 06:19:32;;;;;;;1.92;1.83;;;;;;;21.77;50.50;96419.00;5057844;28;20203;-52
2022/08/13 06:22:01;;;;;;;5.65;2.20;;;;;;;21.57;51.06;96422.88;5058143;28;20218;-52
2022/08/13 06:24:28;;;;;;;2.67;2.28;;;;;;;21.96;50.17;96416.41;5057369;28;20234;-51
2022/08/13 06:26:59;;;;;;;2.03;1.80;;;;;;;22.27;50.95;96416.34;5057293;28;20603;-52
2022/08/13 06:29:27;;;;;;;1.92;1.83;;;;;;;22.24;51.29;96416.78;5057581;28;20261;-51
2022/08/13 06:31:55;;;;;;;1.75;1.65;;;;;;;22.30;50.45;96402.44;5057187;28;20207;-51
2022/08/13 06:34:24;;;;;;;1.90;1.80;;;;;;;22.57;50.03;96409.19;5057262;28;20290;-50
2022/08/13 06:36:51;;;;;;;2.25;1.98;;;;;;;22.61;48.66;96412.25;5058777;28;20226;-51
2022/08/13 06:39:18;;;;;;;3.05;2.05;;;;;;;22.81;49.28;96416.41;5046949;28;20226;-51
2022/08/13 06:41:46;;;;;;;1.77;1.70;;;;;;;22.84;48.97;96430.50;5058947;28;20221;-52
2022/08/13 06:44:14;;;;;;;2.67;1.98;;;;;;;23.11;48.04;96431.84;5057227;28;20222;-52
2022/08/13 06:46:41;;;;;;;2.45;1.67;;;;;;;23.21;48.16;96435.66;5058736;28;20358;-52
2022/08/13 06:49:11;;;;;;;2.08;1.98;;;;;;;23.40;47.68;96430.22;5058201;28;20211;-52
2022/08/13 06:51:38;;;;;;;2.03;1.92;;;;;;;23.40;46.93;96430.22;5058638;28;20670;-51
2022/08/13 06:54:08;;;;;;;2.13;1.80;;;;;;;23.67;47.25;96421.53;5055463;28;20217;-53
2022/08/13 06:56:35;;;;;;;2.10;2.00;;;;;;;23.86;47.24;96429.59;5056038;28;20628;-51
2022/08/13 06:59:04;;;;;;;2.58;2.00;;;;;;;24.07;46.17;96429.03;5056481;28;20242;-51
2022/08/13 07:01:31;;;;;;;3.13;1.90;;;;;;;23.97;46.29;96434.19;5055856;28;20658;-51
2022/08/13 07:03:58;;;;;;;1.85;1.52;;;;;;;24.25;46.31;96431.69;5056404;28;20241;-50
2022/08/13 07:06:27;;;;;;;1.98;1.63;;;;;;;24.48;44.74;96428.19;5056330;28;20222;-52
2022/08/13 07:08:56;;;;;;;2.40;2.20;;;;;;;24.53;45.08;96415.59;5055883;28;20261;-51
2022/08/13 07:11:23;;;;;;;2.17;1.98;;;;;;;24.56;44.22;96408.88;5056418;28;20206;-52
2022/08/13 07:13:51;;;;;;;1.80;1.70;;;;;;;24.59;44.86;96413.81;5051632;28;20519;-53
2022/08/13 07:16:19;;;;;;;1.77;1.67;;;;;;;24.57;46.12;96408.66;5048201;28;20298;-53
2022/08/13 07:18:54;;;;;;;3.78;1.67;;;;;;;25.00;44.69;96410.16;5056065;28;20245;-50
2022/08/13 07:21:24;;;;;;;1.75;1.63;;;;;;;25.30;44.11;96405.31;5049176;28;20206;-52
2022/08/13 07:23:52;;;;;;;1.90;1.80;;;;;;;25.00;42.48;96415.56;5055868;28;20269;-51
2022/08/13 07:26:20;;;;;;;1.95;1.45;;;;;;;25.26;44.64;96421.22;5055822;28;20218;-53
2022/08/13 07:28:49;;;;;;;2.42;2.08;;;;;;;24.81;44.56;96408.63;5056093;28;20275;-51
2022/08/13 07:31:17;;;;;;;2.45;1.70;;;;;;;25.07;42.12;96410.84;5056064;28;20222;-52
2022/08/13 07:33:51;;;;;;;1.50;1.40;;;;;;;25.05;42.93;96418.34;5056150;28;20216;-53
2022/08/13 07:36:20;;;;;;;2.00;1.80;;;;;;;25.00;43.78;96421.78;5054963;28;20217;-52
2022/08/13 07:38:47;;;;;;;1.65;1.55;;;;;;;24.86;44.05;96417.72;5055348;28;20195;-50
2022/08/13 07:41:15;;;;;;;2.25;2.05;;;;;;;24.71;45.02;96428.97;5055345;28;20238;-51
2022/08/13 07:43:44;;;;;;;2.90;1.80;;;;;;;24.64;43.39;96424.75;5055650;28;20313;-51
2022/08/13 07:46:15;;;;;;;2.00;1.90;;;;;;;24.71;44.81;96422.75;5054464;28;20234;-50
2022/08/13 07:48:46;;;;;;;1.90;1.80;;;;;;;25.12;42.89;96419.03;5055752;28;20318;-51
2022/08/13 07:51:19;;;;;;;3.70;1.73;;;;;;;24.97;42.22;96418.75;5062288;28;20238;-52
2022/08/13 07:53:48;;;;;;;2.00;1.90;;;;;;;24.79;43.94;96416.97;5068394;28;20237;-50
2022/08/13 07:56:19;;;;;;;1.85;1.75;;;;;;;24.73;44.03;96424.13;5070642;28;20223;-52
2022/08/13 07:58:46;;;;;;;2.05;1.95;;;;;;;24.93;43.74;96420.28;5071352;28;20203;-51
2022/08/13 08:01:13;;;;;;;4.30;3.65;;;;;;;25.19;44.36;96425.97;5056313;28;20613;-52
2022/08/13 08:03:42;;;;;;;2.10;1.45;;;;;;;25.08;44.21;96410.56;5055146;28;20598;-51
2022/08/13 08:06:09;;;;;;;3.70;1.88;;;;;;;25.14;45.54;96422.34;5045868;28;20212;-52
2022/08/13 08:08:39;;;;;;;2.40;1.55;;;;;;;25.29;42.28;96429.94;5050685;28;20239;-53
2022/08/13 08:11:08;;;;;;;2.05;1.83;;;;;;;25.38;43.50;96423.91;5054951;28;20257;-51
2022/08/13 08:13:34;;;;;;;2.88;2.05;;;;;;;25.43;44.17;96426.72;5053357;28;20302;-52
2022/08/13 08:16:03;;;;;;;5.13;1.67;;;;;;;25.80;41.37;96424.44;5048614;28;20207;-53
2022/08/13 08:18:30;;;;;;;3.33;1.98;;;;;;;25.62;43.20;96422.78;5077739;28;20206;-51
2022/08/13 08:21:05;;;;;;;2.50;1.77;;;;;;;25.46;41.51;96426.25;5075798;28;20218;-53
2022/08/13 08:23:34;;;;;;;3.75;1.60;;;;;;;25.84;41.61;96422.06;5067504;28;20211;-52
2022/08/13 08:26:06;;;;;;;3.38;1.83;;;;;;;25.64;41.62;96423.38;5065411;28;20213;-51
2022/08/13 08:28:35;;;;;;;2.08;1.95;;;;;;;25.48;42.72;96428.69;5062812;28;20208;-53
2022/08/13 08:31:06;;;;;;;2.67;1.70;;;;;;;25.69;43.02;96426.16;5061321;28;20210;-52
2022/08/13 08:33:34;;;;;;;2.00;1.77;;;;;;;25.85;41.75;96424.56;5050476;28;20286;-52
2022/08/13 08:36:02;;;;;;;1.90;1.80;;;;;;;25.69;41.24;96414.50;5053282;28;20290;-52
2022/08/13 08:44:00;;;;;;;2.50;1.70;;;;;;;26.76;40.76;96425.19;5055458;28;20268;-52
2022/08/13 08:46:34;;;;;;;2.15;1.95;;;;;;;26.76;40.04;96428.72;5054438;28;20203;-53
2022/08/13 08:49:04;;;;;;;1.92;1.70;;;;;;;26.80;39.04;96420.91;5054902;28;20286;-51
2022/08/13 08:51:32;;;;;;;4.97;1.98;;;;;;;26.81;39.34;96420.69;5055023;28;20567;-51
2022/08/13 08:53:59;;;;;;;1.92;1.80;;;;;;;26.65;38.68;96419.63;5055474;28;20608;-52
2022/08/13 08:56:25;;;;;;;2.42;1.75;;;;;;;26.54;39.67;96428.69;5054676;28;20290;-53
2022/08/13 08:58:55;;;;;;;2.35;1.67;;;;;;;26.76;40.63;96425.19;5057710;28;20207;-52
2022/08/13 09:01:25;;;;;;;2.78;1.77;;;;;;;26.79;40.33;96422.81;5058270;28;20242;-52
2022/08/13 09:03:53;;;;;;;2.65;1.85;;;;;;;27.12;40.41;96422.75;5057454;28;20586;-51
2022/08/13 09:06:20;;;;;;;1.92;1.83;;;;;;;26.88;40.11;96420.53;5058382;28;20202;-52
2022/08/13 09:08:47;;;;;;;3.15;1.85;;;;;;;27.09;38.07;96419.72;5058314;28;20285;-52
2022/08/13 09:11:19;;;;;;;2.55;2.00;;;;;;;26.89;38.84;96424.88;5058109;28;20207;-53
2022/08/13 09:13:49;;;;;;;2.50;2.10;;;;;;;27.06;38.99;96420.22;5054308;28;20217;-53
2022/08/13 09:16:17;;;;;;;4.72;1.70;;;;;;;27.37;38.99;96427.66;5050043;28;20316;-53
2022/08/13 09:18:47;;;;;;;2.67;2.03;;;;;;;27.57;38.33;96430.63;5045503;28;20214;-53
2022/08/13 09:21:15;;;;;;;1.85;1.75;;;;;;;27.79;39.38;96418.91;5058106;28;20293;-52
2022/08/13 09:23:46;;;;;;;1.70;1.60;;;;;;;27.69;38.38;96415.03;5057744;28;20607;-54
2022/08/13 09:26:13;;;;;;;1.48;1.42;;;;;;;27.73;36.59;96418.03;5057363;28;20211;-55
2022/08/13 09:28:42;;;;;;;1.83;1.73;;;;;;;27.92;36.95;96413.03;5058756;28;20289;-54
2022/08/13 09:31:10;;;;;;;2.42;1.70;;;;;;;28.03;37.15;96426.47;5058215;28;20658;-53
2022/08/13 09:33:38;;;;;;;1.95;1.85;;;;;;;28.10;36.83;96421.69;5057475;28;20702;-55
2022/08/13 09:36:09;;;;;;;1.60;1.58;;;;;;;28.23;36.10;96415.00;5057558;28;20290;-56
2022/08/13 09:38:36;;;;;;;1.70;1.70;;;;;;;28.37;37.25;96418.91;5057516;28;20647;-52
2022/08/13 09:41:09;;;;;;;2.65;1.67;;;;;;;28.40;35.57;96418.38;5055227;28;20205;-51
2022/08/13 09:43:40;;;;;;;3.80;2.03;;;;;;;28.41;37.33;96420.00;5049287;28;20297;-53
2022/08/13 09:46:07;;;;;;;3.40;3.10;;;;;;;28.38;35.63;96417.81;5051570;28;20226;-51
2022/08/13 09:48:33;;;;;;;2.00;1.90;;;;;;;28.03;36.78;96414.78;5048855;28;20228;-50
2022/08/13 09:51:02;;;;;;;1.80;1.70;;;;;;;28.06;37.44;96422.41;5054906;28;20611;-54
2022/08/13 09:53:32;;;;;;;2.08;1.83;;;;;;;28.32;36.19;96424.31;5052070;28;20514;-52
2022/08/13 09:55:59;;;;;;;1.75;1.60;;;;;;;28.31;35.54;96422.66;5052833;28;20206;-56
2022/08/13 09:58:26;;;;;;;1.63;1.55;;;;;;;28.25;36.57;96418.25;5041993;28;20203;-56
2022/08/13 10:00:54;;;;;;;2.47;1.42;;;;;;;28.72;36.03;96407.47;5056954;28;20293;-54
2022/08/13 10:03:20;;;;;;;3.00;1.73;;;;;;;28.83;36.45;96413.81;5057582;28;20532;-56
2022/08/13 10:05:47;;;;;;;1.70;1.60;;;;;;;28.96;35.46;96407.88;5057376;28;20753;-52
2022/08/13 10:08:17;;;;;;;3.20;1.90;;;;;;;29.06;35.26;96411.47;5056754;28;20223;-53
2022/08/13 10:10:46;;;;;;;3.55;2.50;;;;;;;28.96;35.75;96407.88;5054883;28;20597;-51
2022/08/13 10:13:14;;;;;;;2.33;1.60;;;;;;;28.95;35.50;96401.63;5051693;28;20200;-53
2022/08/13 10:15:41;;;;;;;1.92;1.80;;;;;;;28.64;34.46;96403.31;5052585;28;20298;-52
2022/08/13 10:18:09;;;;;;;6.32;2.00;;;;;;;28.97;35.29;96409.53;5050398;28;20226;-51
2022/08/13 10:20:38;;;;;;;1.67;1.58;;;;;;;28.92;35.23;96399.41;5051750;28;20278;-52
2022/08/13 10:23:06;;;;;;;1.63;1.50;;;;;;;28.93;35.26;96411.13;5049178;28;20373;-51
2022/08/13 10:25:33;;;;;;;2.42;1.80;;;;;;;28.92;34.59;96401.31;5050593;28;20219;-52
2022/08/13 10:28:01;;;;;;;2.25;1.60;;;;;;;29.19;34.61;96410.19;5056514;28;20274;-52
2022/08/13 10:30:29;;;;;;;1.77;1.65;;;;;;;29.37;34.83;96401.53;5066596;28;20207;-53
2022/08/13 10:32:56;;;;;;;2.08;1.98;;;;;;;29.27;35.44;96393.34;5061182;28;20205;-54
2022/08/13 10:35:24;;;;;;;2.30;2.20;;;;;;;29.59;35.55;96395.88;5064994;28;20202;-52
2022/08/13 10:37:56;;;;;;;2.40;1.75;;;;;;;29.52;34.48;96400.78;5061075;28;20200;-52
2022/08/13 10:40:23;;;;;;;1.63;1.55;;;;;;;29.54;34.31;96391.25;5059070;28;20223;-51
2022/08/13 10:42:52;;;;;;;2.45;1.63;;;;;;;29.69;33.54;96381.47;5054334;28;20278;-53
2022/08/13 10:45:20;;;;;;;2.55;1.70;;;;;;;29.94;33.87;96381.53;5051162;28;20227;-52
2022/08/13 10:47:48;;;;;;;1.88;1.40;;;;;;;30.13;33.64;96374.44;5055011;28;20243;-53
2022/08/13 10:50:15;;;;;;;2.95;1.70;;;;;;;30.04;33.92;96374.16;5054256;28;20250;-52
2022/08/13 10:52:42;;;;;;;2.55;1.60;;;;;;;30.24;33.36;96367.06;5053680;28;20300;-51
2022/08/13 10:55:11;;;;;;;1.73;1.63;;;;;;;30.39;32.04;96378.81;5055941;28;20287;-54
2022/08/13 10:57:38;;;;;;;1.60;1.50;;;;;;;29.84;31.64;96376.03;5055753;28;20207;-51
2022/08/13 11:00:07;;;;;;;1.58;1.48;;;;;;;29.75;31.13;96374.94;5055781;28;20615;-51
2022/08/13 11:02:37;;;;;;;1.77;1.67;;;;;;;29.83;31.52;96379.88;5055459;28;20210;-52
2022/08/13 11:05:05;;;;;;;1.85;1.70;;;;;;;29.81;30.91;96376.56;5055863;28;20322;-52
2022/08/13 11:07:32;;;;;;;1.98;1.35;;;;;;;29.87;31.42;96381.78;5043279;28;20233;-51
2022/08/13 11:09:59;;;;;;;1.42;1.33;;;;;;;29.72;31.79;96384.50;5056093;28;20285;-51
2022/08/13 11:12:26;;;;;;;4.30;2.47;;;;;;;29.59;31.76;96382.25;5056644;28;20290;-52
2022/08/13 11:14:53;;;;;;;1.48;1.45;;;;;;;29.55;32.77;96373.81;5043430;28;20291;-51
2022/08/13 11:17:20;;;;;;;2.28;1.27;;;;;;;29.69;32.13;96368.66;5056503;28;20298;-53
2022/08/13 11:19:49;;;;;;;2.55;1.30;;;;;;;29.98;32.26;96372.53;5055786;28;20215;-53
2022/08/13 11:22:16;;;;;;;3.13;1.45;;;;;;;30.02;30.98;96372.81;5057297;28;20302;-52
2022/08/13 11:24:43;;;;;;;1.95;1.42;;;;;;;29.77;30.49;96365.41;5056329;28;20275;-52
2022/08/13 11:27:10;;;;;;;2.50;2.30;;;;;;;29.90;30.50;96366.81;5056212;28;20293;-51
2022/08/13 11:29:37;;;;;;;3.22;1.13;;;;;;;29.93;30.61;96364.38;5056760;28;20238;-53
2022/08/13 11:32:06;;;;;;;1.67;1.48;;;;;;;30.07;30.96;96362.72;5056209;28;20213;-51
2022/08/13 11:34:34;;;;;;;1.65;1.45;;;;;;;30.12;31.32;96359.16;5056010;28;20210;-53
2022/08/13 11:37:03;;;;;;;1.95;1.30;;;;;;;30.19;29.79;96356.16;5056101;28;20203;-52
2022/08/13 11:39:30;;;;;;;1.40;1.33;;;;;;;30.27;30.21;96364.63;5056513;28;20537;-54
2022/08/13 11:41:56;;;;;;;2.03;1.23;;;;;;;30.18;28.75;96365.44;5056962;28;20211;-51
2022/08/13 11:44:23;;;;;;;0.95;0.80;;;;;;;30.13;27.27;96367.09;5056660;28;20239;-52
2022/08/13 11:46:50;;;;;;;0.98;0.90;;;;;;;30.36;28.59;96368.41;5058792;28;20326;-52
2022/08/13 11:49:17;;;;;;;1.48;1.40;;;;;;;30.49;29.08;96378.81;5059306;28;20206;-53
2022/08/13 11:51:46;;;;;;;1.30;1.27;;;;;;;30.36;27.84;96362.97;5077756;28;20180;-51
2022/08/13 11:54:18;;;;;;;1.10;1.10;;;;;;;30.42;27.66;96366.56;5078761;28;20183;-53
2022/08/13 11:56:45;;;;;;;1.73;1.17;;;;;;;30.37;28.75;96361.88;5078283;28;20176;-51
2022/08/13 11:59:11;;;;;;;1.40;1.30;;;;;;;30.07;28.60;96361.91;5059851;28;20208;-53